sensor_id;sensor_type;location;lat;lon;timestamp;temperature;humidity
76613;DHT22;65507;48.454;-2.058;2023-07-29T00:01:48;18.70;73.10
76613;DHT22;65507;48.454;-2.058;2023-07-29T00:04:14;18.70;73.10
76613;DHT22;65507;48.454;-2.058;2023-07-29T00:06:40;18.70;73.10
76613;DHT22;65507;48.454;-2.058;2023-07-29T00:09:05;18.70;73.10
76613;DHT22;65507;48.454;-2.058;2023-07-29T00:11:31;18.80;73.10
76613;DHT22;65507;48.454;-2.058;2023-07-29T00:14:02;18.80;73.10
76613;DHT22;65507;48.454;-2.058;2023-07-29T00:16:27;18.80;72.90
76613;DHT22;65507;48.454;-2.058;2023-07-29T00:18:53;18.80;73.00
76613;DHT22;65507;48.454;-2.058;2023-07-29T00:21:18;18.80;73.00
76613;DHT22;65507;48.454;-2.058;2023-07-29T00:23:47;18.80;72.90
76613;DHT22;65507;48.454;-2.058;2023-07-29T00:26:12;18.90;73.10
76613;DHT22;65507;48.454;-2.058;2023-07-29T00:28:38;18.90;73.00
76613;DHT22;65507;48.454;-2.058;2023-07-29T00:31:03;18.90;73.00
76613;DHT22;65507;48.454;-2.058;2023-07-29T00:33:29;18.90;73.00
76613;DHT22;65507;48.454;-2.058;2023-07-29T00:35:54;18.90;73.00
76613;DHT22;65507;48.454;-2.058;2023-07-29T00:38:20;18.90;73.00
76613;DHT22;65507;48.454;-2.058;2023-07-29T00:40:45;18.90;74.00
76613;DHT22;65507;48.454;-2.058;2023-07-29T00:43:11;18.90;73.00
76613;DHT22;65507;48.454;-2.058;2023-07-29T00:45:36;18.90;73.10
76613;DHT22;65507;48.454;-2.058;2023-07-29T00:48:02;19.00;73.10
76613;DHT22;65507;48.454;-2.058;2023-07-29T00:50:28;18.90;73.00
76613;DHT22;65507;48.454;-2.058;2023-07-29T00:52:54;18.90;73.00
76613;DHT22;65507;48.454;-2.058;2023-07-29T00:55:20;18.90;73.10
76613;DHT22;65507;48.454;-2.058;2023-07-29T00:57:46;18.90;73.10
76613;DHT22;65507;48.454;-2.058;2023-07-29T01:00:14;18.90;73.10
76613;DHT22;65507;48.454;-2.058;2023-07-29T01:02:39;18.90;73.20
76613;DHT22;65507;48.454;-2.058;2023-07-29T01:05:05;18.90;73.20
76613;DHT22;65507;48.454;-2.058;2023-07-29T01:10:01;18.90;73.20
76613;DHT22;65507;48.454;-2.058;2023-07-29T01:17:32;18.90;73.40
76613;DHT22;65507;48.454;-2.058;2023-07-29T01:20:06;18.90;73.30
76613;DHT22;65507;48.454;-2.058;2023-07-29T01:22:36;18.90;73.30
76613;DHT22;65507;48.454;-2.058;2023-07-29T01:25:02;18.90;73.20
76613;DHT22;65507;48.454;-2.058;2023-07-29T01:27:29;19.00;73.20
76613;DHT22;65507;48.454;-2.058;2023-07-29T01:29:54;19.00;73.20
76613;DHT22;65507;48.454;-2.058;2023-07-29T01:32:26;19.00;73.20
76613;DHT22;65507;48.454;-2.058;2023-07-29T01:35:00;19.00;73.10
76613;DHT22;65507;48.454;-2.058;2023-07-29T01:37:29;19.00;73.10
76613;DHT22;65507;48.454;-2.058;2023-07-29T01:39:56;19.00;73.10
76613;DHT22;65507;48.454;-2.058;2023-07-29T01:42:22;19.00;73.10
76613;DHT22;65507;48.454;-2.058;2023-07-29T01:44:48;19.00;73.10
76613;DHT22;65507;48.454;-2.058;2023-07-29T01:47:14;19.10;73.20
76613;DHT22;65507;48.454;-2.058;2023-07-29T01:49:39;19.10;73.10
76613;DHT22;65507;48.454;-2.058;2023-07-29T01:52:05;19.10;73.10
76613;DHT22;65507;48.454;-2.058;2023-07-29T01:54:30;19.10;73.10
76613;DHT22;65507;48.454;-2.058;2023-07-29T01:56:56;19.10;73.10
76613;DHT22;65507;48.454;-2.058;2023-07-29T01:59:21;19.20;73.10
76613;DHT22;65507;48.454;-2.058;2023-07-29T02:01:47;19.20;73.10
76613;DHT22;65507;48.454;-2.058;2023-07-29T02:04:14;19.20;73.10
76613;DHT22;65507;48.454;-2.058;2023-07-29T02:06:39;19.20;73.10
76613;DHT22;65507;48.454;-2.058;2023-07-29T02:09:05;19.20;73.20
76613;DHT22;65507;48.454;-2.058;2023-07-29T02:11:30;19.20;73.50
76613;DHT22;65507;48.454;-2.058;2023-07-29T02:13:56;19.20;73.40
76613;DHT22;65507;48.454;-2.058;2023-07-29T02:16:22;19.10;73.50
76613;DHT22;65507;48.454;-2.058;2023-07-29T02:18:48;19.10;73.50
76613;DHT22;65507;48.454;-2.058;2023-07-29T02:21:15;19.10;73.40
76613;DHT22;65507;48.454;-2.058;2023-07-29T02:23:40;19.10;73.40
76613;DHT22;65507;48.454;-2.058;2023-07-29T02:26:06;19.10;73.50
76613;DHT22;65507;48.454;-2.058;2023-07-29T02:28:31;19.10;73.50
76613;DHT22;65507;48.454;-2.058;2023-07-29T02:33:59;19.10;73.40
76613;DHT22;65507;48.454;-2.058;2023-07-29T02:36:25;19.10;73.40
76613;DHT22;65507;48.454;-2.058;2023-07-29T02:38:51;19.10;73.40
76613;DHT22;65507;48.454;-2.058;2023-07-29T02:41:16;19.20;73.50
76613;DHT22;65507;48.454;-2.058;2023-07-29T02:43:42;19.20;73.50
76613;DHT22;65507;48.454;-2.058;2023-07-29T02:46:08;19.20;73.40
76613;DHT22;65507;48.454;-2.058;2023-07-29T02:48:34;19.10;73.40
76613;DHT22;65507;48.454;-2.058;2023-07-29T02:50:59;19.10;73.50
76613;DHT22;65507;48.454;-2.058;2023-07-29T02:53:25;19.10;73.50
76613;DHT22;65507;48.454;-2.058;2023-07-29T02:55:50;19.10;73.70
76613;DHT22;65507;48.454;-2.058;2023-07-29T02:58:16;19.10;73.70
76613;DHT22;65507;48.454;-2.058;2023-07-29T03:00:42;19.00;73.70
76613;DHT22;65507;48.454;-2.058;2023-07-29T03:03:08;19.00;73.80
76613;DHT22;65507;48.454;-2.058;2023-07-29T03:05:34;18.90;73.90
76613;DHT22;65507;48.454;-2.058;2023-07-29T03:07:59;18.90;73.90
76613;DHT22;65507;48.454;-2.058;2023-07-29T03:10:25;18.90;73.90
76613;DHT22;65507;48.454;-2.058;2023-07-29T03:12:51;19.00;73.80
76613;DHT22;65507;48.454;-2.058;2023-07-29T03:15:16;19.00;73.80
76613;DHT22;65507;48.454;-2.058;2023-07-29T03:17:42;19.00;73.80
76613;DHT22;65507;48.454;-2.058;2023-07-29T03:20:07;19.00;73.80
76613;DHT22;65507;48.454;-2.058;2023-07-29T03:22:33;19.00;73.70
76613;DHT22;65507;48.454;-2.058;2023-07-29T03:24:58;19.00;73.80
76613;DHT22;65507;48.454;-2.058;2023-07-29T03:27:24;19.00;73.80
76613;DHT22;65507;48.454;-2.058;2023-07-29T03:29:49;19.00;73.80
76613;DHT22;65507;48.454;-2.058;2023-07-29T03:32:15;19.00;73.70
76613;DHT22;65507;48.454;-2.058;2023-07-29T03:34:40;19.00;73.80
76613;DHT22;65507;48.454;-2.058;2023-07-29T03:37:06;19.00;73.80
76613;DHT22;65507;48.454;-2.058;2023-07-29T03:39:32;19.00;73.90
76613;DHT22;65507;48.454;-2.058;2023-07-29T03:41:57;19.00;73.90
76613;DHT22;65507;48.454;-2.058;2023-07-29T03:44:23;19.00;73.80
76613;DHT22;65507;48.454;-2.058;2023-07-29T03:46:49;18.90;73.80
76613;DHT22;65507;48.454;-2.058;2023-07-29T03:49:14;18.90;73.80
76613;DHT22;65507;48.454;-2.058;2023-07-29T03:51:40;18.90;73.90
76613;DHT22;65507;48.454;-2.058;2023-07-29T03:54:06;18.90;73.90
76613;DHT22;65507;48.454;-2.058;2023-07-29T03:56:31;18.90;74.00
76613;DHT22;65507;48.454;-2.058;2023-07-29T03:59:01;18.90;74.20
76613;DHT22;65507;48.454;-2.058;2023-07-29T04:01:27;18.80;74.10
76613;DHT22;65507;48.454;-2.058;2023-07-29T04:03:52;18.80;74.10
76613;DHT22;65507;48.454;-2.058;2023-07-29T04:06:20;18.80;74.20
76613;DHT22;65507;48.454;-2.058;2023-07-29T04:08:45;18.80;74.30
76613;DHT22;65507;48.454;-2.058;2023-07-29T04:11:11;18.80;74.40
76613;DHT22;65507;48.454;-2.058;2023-07-29T04:13:36;18.80;74.50
76613;DHT22;65507;48.454;-2.058;2023-07-29T04:16:03;18.70;74.40
76613;DHT22;65507;48.454;-2.058;2023-07-29T04:18:29;18.70;74.40
76613;DHT22;65507;48.454;-2.058;2023-07-29T04:20:54;18.70;74.40
76613;DHT22;65507;48.454;-2.058;2023-07-29T04:23:20;18.70;74.60
76613;DHT22;65507;48.454;-2.058;2023-07-29T04:25:45;18.70;74.50
76613;DHT22;65507;48.454;-2.058;2023-07-29T04:28:11;18.70;74.50
76613;DHT22;65507;48.454;-2.058;2023-07-29T04:30:36;18.70;74.40
76613;DHT22;65507;48.454;-2.058;2023-07-29T04:33:02;18.70;74.40
76613;DHT22;65507;48.454;-2.058;2023-07-29T04:35:28;18.60;74.60
76613;DHT22;65507;48.454;-2.058;2023-07-29T04:37:53;18.60;74.60
76613;DHT22;65507;48.454;-2.058;2023-07-29T04:40:19;18.60;74.60
76613;DHT22;65507;48.454;-2.058;2023-07-29T04:42:44;18.60;74.70
76613;DHT22;65507;48.454;-2.058;2023-07-29T04:45:10;18.60;74.50
76613;DHT22;65507;48.454;-2.058;2023-07-29T04:47:36;18.60;74.80
76613;DHT22;65507;48.454;-2.058;2023-07-29T04:50:02;18.60;74.60
76613;DHT22;65507;48.454;-2.058;2023-07-29T04:52:27;18.60;74.80
76613;DHT22;65507;48.454;-2.058;2023-07-29T04:54:53;18.60;74.70
76613;DHT22;65507;48.454;-2.058;2023-07-29T04:57:18;18.60;74.60
76613;DHT22;65507;48.454;-2.058;2023-07-29T04:59:44;18.60;74.60
76613;DHT22;65507;48.454;-2.058;2023-07-29T05:02:09;18.60;74.60
76613;DHT22;65507;48.454;-2.058;2023-07-29T05:04:35;18.60;74.60
76613;DHT22;65507;48.454;-2.058;2023-07-29T05:07:01;18.60;74.60
76613;DHT22;65507;48.454;-2.058;2023-07-29T05:09:26;18.60;74.50
76613;DHT22;65507;48.454;-2.058;2023-07-29T05:11:52;18.60;74.40
76613;DHT22;65507;48.454;-2.058;2023-07-29T05:14:17;18.60;74.40
76613;DHT22;65507;48.454;-2.058;2023-07-29T05:16:43;18.60;74.50
76613;DHT22;65507;48.454;-2.058;2023-07-29T05:19:08;18.60;74.50
76613;DHT22;65507;48.454;-2.058;2023-07-29T05:21:34;18.70;74.40
76613;DHT22;65507;48.454;-2.058;2023-07-29T05:24:00;18.70;74.40
76613;DHT22;65507;48.454;-2.058;2023-07-29T05:26:25;18.70;74.20
76613;DHT22;65507;48.454;-2.058;2023-07-29T05:28:51;18.80;74.10
76613;DHT22;65507;48.454;-2.058;2023-07-29T05:31:16;18.10;73.70
76613;DHT22;65507;48.454;-2.058;2023-07-29T05:33:42;18.90;74.80
76613;DHT22;65507;48.454;-2.058;2023-07-29T05:36:07;16.50;72.40
76613;DHT22;65507;48.454;-2.058;2023-07-29T05:38:33;19.10;73.60
76613;DHT22;65507;48.454;-2.058;2023-07-29T05:40:58;19.20;73.30
76613;DHT22;65507;48.454;-2.058;2023-07-29T05:43:24;19.30;73.20
76613;DHT22;65507;48.454;-2.058;2023-07-29T05:45:50;19.40;73.00
76613;DHT22;65507;48.454;-2.058;2023-07-29T05:48:16;19.50;72.90
76613;DHT22;65507;48.454;-2.058;2023-07-29T05:50:42;19.50;72.70
76613;DHT22;65507;48.454;-2.058;2023-07-29T05:53:07;19.60;72.60
76613;DHT22;65507;48.454;-2.058;2023-07-29T05:55:33;19.80;72.50
76613;DHT22;65507;48.454;-2.058;2023-07-29T05:57:58;19.80;72.40
76613;DHT22;65507;48.454;-2.058;2023-07-29T06:00:24;19.90;72.30
76613;DHT22;65507;48.454;-2.058;2023-07-29T06:02:49;19.90;72.30
76613;DHT22;65507;48.454;-2.058;2023-07-29T06:05:15;20.00;72.40
76613;DHT22;65507;48.454;-2.058;2023-07-29T06:07:41;20.00;72.50
76613;DHT22;65507;48.454;-2.058;2023-07-29T06:10:13;20.10;72.40
76613;DHT22;65507;48.454;-2.058;2023-07-29T06:12:39;20.20;72.40
76613;DHT22;65507;48.454;-2.058;2023-07-29T06:15:05;20.20;72.50
76613;DHT22;65507;48.454;-2.058;2023-07-29T06:17:30;20.20;72.50
76613;DHT22;65507;48.454;-2.058;2023-07-29T06:19:56;20.30;72.50
76613;DHT22;65507;48.454;-2.058;2023-07-29T06:22:21;20.20;72.40
76613;DHT22;65507;48.454;-2.058;2023-07-29T06:24:47;20.40;72.40
76613;DHT22;65507;48.454;-2.058;2023-07-29T06:27:13;20.60;72.20
76613;DHT22;65507;48.454;-2.058;2023-07-29T06:29:38;20.70;71.80
76613;DHT22;65507;48.454;-2.058;2023-07-29T06:32:04;20.80;71.70
76613;DHT22;65507;48.454;-2.058;2023-07-29T06:34:29;20.90;71.50
76613;DHT22;65507;48.454;-2.058;2023-07-29T06:36:55;21.00;71.50
76613;DHT22;65507;48.454;-2.058;2023-07-29T06:39:20;21.00;71.50
76613;DHT22;65507;48.454;-2.058;2023-07-29T06:41:46;21.00;71.50
76613;DHT22;65507;48.454;-2.058;2023-07-29T06:44:11;21.00;71.60
76613;DHT22;65507;48.454;-2.058;2023-07-29T06:46:37;21.10;71.70
76613;DHT22;65507;48.454;-2.058;2023-07-29T06:49:02;21.10;71.80
76613;DHT22;65507;48.454;-2.058;2023-07-29T06:51:28;21.10;71.90
76613;DHT22;65507;48.454;-2.058;2023-07-29T06:54:00;21.00;72.10
76613;DHT22;65507;48.454;-2.058;2023-07-29T06:56:25;20.90;72.60
76613;DHT22;65507;48.454;-2.058;2023-07-29T06:58:51;20.70;72.70
76613;DHT22;65507;48.454;-2.058;2023-07-29T07:01:16;20.70;73.10
76613;DHT22;65507;48.454;-2.058;2023-07-29T07:03:42;20.70;73.20
76613;DHT22;65507;48.454;-2.058;2023-07-29T07:06:07;20.60;73.40
76613;DHT22;65507;48.454;-2.058;2023-07-29T07:08:33;20.50;73.50
76613;DHT22;65507;48.454;-2.058;2023-07-29T07:10:58;20.50;73.50
76613;DHT22;65507;48.454;-2.058;2023-07-29T07:13:24;20.50;73.50
76613;DHT22;65507;48.454;-2.058;2023-07-29T07:15:49;20.50;73.60
76613;DHT22;65507;48.454;-2.058;2023-07-29T07:18:15;20.50;73.70
76613;DHT22;65507;48.454;-2.058;2023-07-29T07:20:40;20.50;73.50
76613;DHT22;65507;48.454;-2.058;2023-07-29T07:23:06;20.50;73.40
76613;DHT22;65507;48.454;-2.058;2023-07-29T07:25:36;20.50;73.50
76613;DHT22;65507;48.454;-2.058;2023-07-29T07:28:01;20.60;73.30
76613;DHT22;65507;48.454;-2.058;2023-07-29T07:30:27;20.60;73.20
76613;DHT22;65507;48.454;-2.058;2023-07-29T07:32:52;20.70;72.90
76613;DHT22;65507;48.454;-2.058;2023-07-29T07:35:18;20.80;72.90
76613;DHT22;65507;48.454;-2.058;2023-07-29T07:37:44;20.90;72.80
76613;DHT22;65507;48.454;-2.058;2023-07-29T07:40:10;21.00;72.20
76613;DHT22;65507;48.454;-2.058;2023-07-29T07:42:35;21.10;71.90
76613;DHT22;65507;48.454;-2.058;2023-07-29T07:45:01;21.20;71.80
76613;DHT22;65507;48.454;-2.058;2023-07-29T07:47:26;21.00;72.20
76613;DHT22;65507;48.454;-2.058;2023-07-29T07:49:52;21.00;72.40
76613;DHT22;65507;48.454;-2.058;2023-07-29T07:52:17;20.90;72.60
76613;DHT22;65507;48.454;-2.058;2023-07-29T07:54:43;20.80;72.80
76613;DHT22;65507;48.454;-2.058;2023-07-29T07:57:08;20.70;73.00
76613;DHT22;65507;48.454;-2.058;2023-07-29T07:59:34;20.80;72.70
76613;DHT22;65507;48.454;-2.058;2023-07-29T08:02:00;20.80;72.80
76613;DHT22;65507;48.454;-2.058;2023-07-29T08:04:25;21.00;72.30
76613;DHT22;65507;48.454;-2.058;2023-07-29T08:06:51;21.10;73.00
76613;DHT22;65507;48.454;-2.058;2023-07-29T08:09:16;21.20;71.70
76613;DHT22;65507;48.454;-2.058;2023-07-29T08:11:42;21.30;71.30
76613;DHT22;65507;48.454;-2.058;2023-07-29T08:14:07;21.40;71.10
76613;DHT22;65507;48.454;-2.058;2023-07-29T08:16:33;21.50;71.00
76613;DHT22;65507;48.454;-2.058;2023-07-29T08:18:58;21.50;71.10
76613;DHT22;65507;48.454;-2.058;2023-07-29T08:21:24;21.50;71.20
76613;DHT22;65507;48.454;-2.058;2023-07-29T08:23:49;21.60;71.30
76613;DHT22;65507;48.454;-2.058;2023-07-29T08:26:15;21.70;70.90
76613;DHT22;65507;48.454;-2.058;2023-07-29T08:28:42;21.80;70.70
76613;DHT22;65507;48.454;-2.058;2023-07-29T08:31:07;21.70;70.60
76613;DHT22;65507;48.454;-2.058;2023-07-29T08:33:33;21.70;70.60
76613;DHT22;65507;48.454;-2.058;2023-07-29T08:35:59;21.60;70.70
76613;DHT22;65507;48.454;-2.058;2023-07-29T08:38:25;21.60;70.70
76613;DHT22;65507;48.454;-2.058;2023-07-29T08:43:16;21.60;70.70
76613;DHT22;65507;48.454;-2.058;2023-07-29T08:45:44;21.50;70.60
76613;DHT22;65507;48.454;-2.058;2023-07-29T08:48:09;21.50;70.80
76613;DHT22;65507;48.454;-2.058;2023-07-29T08:50:35;21.70;70.70
76613;DHT22;65507;48.454;-2.058;2023-07-29T08:53:03;21.80;70.20
76613;DHT22;65507;48.454;-2.058;2023-07-29T08:55:29;21.80;69.80
76613;DHT22;65507;48.454;-2.058;2023-07-29T08:57:55;21.90;69.70
76613;DHT22;65507;48.454;-2.058;2023-07-29T09:00:21;21.90;69.80
76613;DHT22;65507;48.454;-2.058;2023-07-29T09:02:47;21.90;69.90
76613;DHT22;65507;48.454;-2.058;2023-07-29T09:05:12;21.90;69.70
76613;DHT22;65507;48.454;-2.058;2023-07-29T09:07:38;21.80;69.60
76613;DHT22;65507;48.454;-2.058;2023-07-29T09:10:04;21.80;69.70
76613;DHT22;65507;48.454;-2.058;2023-07-29T09:12:30;21.90;69.70
76613;DHT22;65507;48.454;-2.058;2023-07-29T09:14:55;21.90;69.40
76613;DHT22;65507;48.454;-2.058;2023-07-29T09:17:21;22.00;69.30
76613;DHT22;65507;48.454;-2.058;2023-07-29T09:19:48;22.10;69.20
76613;DHT22;65507;48.454;-2.058;2023-07-29T09:22:17;22.20;69.00
76613;DHT22;65507;48.454;-2.058;2023-07-29T09:24:43;22.40;68.70
76613;DHT22;65507;48.454;-2.058;2023-07-29T09:27:09;22.40;68.60
76613;DHT22;65507;48.454;-2.058;2023-07-29T09:29:35;22.40;68.60
76613;DHT22;65507;48.454;-2.058;2023-07-29T09:34:45;22.40;68.50
76613;DHT22;65507;48.454;-2.058;2023-07-29T09:37:15;22.50;68.50
76613;DHT22;65507;48.454;-2.058;2023-07-29T09:39:43;22.60;68.50
76613;DHT22;65507;48.454;-2.058;2023-07-29T09:42:11;22.70;68.20
76613;DHT22;65507;48.454;-2.058;2023-07-29T09:44:36;22.80;68.10
76613;DHT22;65507;48.454;-2.058;2023-07-29T09:47:02;22.90;68.00
76613;DHT22;65507;48.454;-2.058;2023-07-29T09:49:27;23.00;67.80
76613;DHT22;65507;48.454;-2.058;2023-07-29T09:51:55;23.00;67.80
76613;DHT22;65507;48.454;-2.058;2023-07-29T09:54:21;23.20;67.70
76613;DHT22;65507;48.454;-2.058;2023-07-29T09:56:46;23.30;67.60
76613;DHT22;65507;48.454;-2.058;2023-07-29T09:59:12;23.30;67.40
76613;DHT22;65507;48.454;-2.058;2023-07-29T10:01:38;23.50;67.40
76613;DHT22;65507;48.454;-2.058;2023-07-29T10:04:04;23.70;66.80
76613;DHT22;65507;48.454;-2.058;2023-07-29T10:06:30;23.70;66.60
76613;DHT22;65507;48.454;-2.058;2023-07-29T10:08:56;23.70;66.90
76613;DHT22;65507;48.454;-2.058;2023-07-29T10:11:21;23.80;66.90
76613;DHT22;65507;48.454;-2.058;2023-07-29T10:13:47;24.00;66.70
76613;DHT22;65507;48.454;-2.058;2023-07-29T10:16:13;24.00;66.50
76613;DHT22;65507;48.454;-2.058;2023-07-29T10:18:39;23.90;66.50
76613;DHT22;65507;48.454;-2.058;2023-07-29T10:21:05;23.80;67.00
76613;DHT22;65507;48.454;-2.058;2023-07-29T10:23:32;23.60;67.40
76613;DHT22;65507;48.454;-2.058;2023-07-29T10:26:02;23.50;67.70
76613;DHT22;65507;48.454;-2.058;2023-07-29T10:28:31;23.60;67.80
76613;DHT22;65507;48.454;-2.058;2023-07-29T10:30:57;23.70;67.50
76613;DHT22;65507;48.454;-2.058;2023-07-29T10:33:23;23.90;67.10
76613;DHT22;65507;48.454;-2.058;2023-07-29T10:35:49;24.10;66.60
76613;DHT22;65507;48.454;-2.058;2023-07-29T10:38:15;24.20;66.40
76613;DHT22;65507;48.454;-2.058;2023-07-29T10:40:51;24.30;66.30
76613;DHT22;65507;48.454;-2.058;2023-07-29T10:43:24;24.20;66.30
76613;DHT22;65507;48.454;-2.058;2023-07-29T10:45:50;24.20;66.50
76613;DHT22;65507;48.454;-2.058;2023-07-29T10:51:42;24.40;66.20
76613;DHT22;65507;48.454;-2.058;2023-07-29T10:54:11;24.50;66.40
76613;DHT22;65507;48.454;-2.058;2023-07-29T10:56:37;24.60;66.20
76613;DHT22;65507;48.454;-2.058;2023-07-29T11:01:37;24.80;66.00
76613;DHT22;65507;48.454;-2.058;2023-07-29T11:04:45;24.90;66.80
76613;DHT22;65507;48.454;-2.058;2023-07-29T11:07:17;25.00;65.80
76613;DHT22;65507;48.454;-2.058;2023-07-29T11:14:59;25.00;66.20
76613;DHT22;65507;48.454;-2.058;2023-07-29T11:17:25;25.10;66.20
76613;DHT22;65507;48.454;-2.058;2023-07-29T11:19:51;25.20;66.10
76613;DHT22;65507;48.454;-2.058;2023-07-29T11:22:17;25.30;66.10
76613;DHT22;65507;48.454;-2.058;2023-07-29T11:24:42;25.30;65.90
76613;DHT22;65507;48.454;-2.058;2023-07-29T11:27:11;25.30;66.00
76613;DHT22;65507;48.454;-2.058;2023-07-29T11:29:37;25.20;66.10
76613;DHT22;65507;48.454;-2.058;2023-07-29T11:32:02;25.00;66.50
76613;DHT22;65507;48.454;-2.058;2023-07-29T11:34:34;24.80;67.00
76613;DHT22;65507;48.454;-2.058;2023-07-29T11:37:00;24.70;67.20
76613;DHT22;65507;48.454;-2.058;2023-07-29T11:39:25;24.60;67.30
76613;DHT22;65507;48.454;-2.058;2023-07-29T11:41:51;24.50;67.40
76613;DHT22;65507;48.454;-2.058;2023-07-29T11:44:17;24.40;67.50
76613;DHT22;65507;48.454;-2.058;2023-07-29T11:46:42;24.20;67.70
76613;DHT22;65507;48.454;-2.058;2023-07-29T11:49:08;24.30;67.70
76613;DHT22;65507;48.454;-2.058;2023-07-29T11:51:34;24.40;67.50
76613;DHT22;65507;48.454;-2.058;2023-07-29T11:53:59;24.50;67.10
76613;DHT22;65507;48.454;-2.058;2023-07-29T11:56:25;24.60;66.90
76613;DHT22;65507;48.454;-2.058;2023-07-29T11:58:51;24.70;66.70
76613;DHT22;65507;48.454;-2.058;2023-07-29T12:01:16;24.90;66.40
76613;DHT22;65507;48.454;-2.058;2023-07-29T12:03:42;24.90;66.10
76613;DHT22;65507;48.454;-2.058;2023-07-29T12:06:08;24.90;65.90
76613;DHT22;65507;48.454;-2.058;2023-07-29T12:08:34;24.90;65.90
76613;DHT22;65507;48.454;-2.058;2023-07-29T12:11:00;24.90;66.00
76613;DHT22;65507;48.454;-2.058;2023-07-29T12:13:25;25.10;65.70
76613;DHT22;65507;48.454;-2.058;2023-07-29T12:15:51;25.40;65.20
76613;DHT22;65507;48.454;-2.058;2023-07-29T12:18:16;25.60;64.90
76613;DHT22;65507;48.454;-2.058;2023-07-29T12:20:42;25.80;64.50
76613;DHT22;65507;48.454;-2.058;2023-07-29T12:23:07;25.80;64.40
76613;DHT22;65507;48.454;-2.058;2023-07-29T12:25:33;25.90;64.70
76613;DHT22;65507;48.454;-2.058;2023-07-29T12:28:03;26.00;64.30
76613;DHT22;65507;48.454;-2.058;2023-07-29T12:30:29;26.00;64.40
76613;DHT22;65507;48.454;-2.058;2023-07-29T12:32:54;26.10;64.50
76613;DHT22;65507;48.454;-2.058;2023-07-29T12:35:20;26.10;64.50
76613;DHT22;65507;48.454;-2.058;2023-07-29T12:37:46;26.20;64.50
76613;DHT22;65507;48.454;-2.058;2023-07-29T12:40:21;26.00;64.50
76613;DHT22;65507;48.454;-2.058;2023-07-29T12:42:47;26.00;65.10
76613;DHT22;65507;48.454;-2.058;2023-07-29T12:45:14;26.00;64.90
76613;DHT22;65507;48.454;-2.058;2023-07-29T12:47:40;25.90;65.10
76613;DHT22;65507;48.454;-2.058;2023-07-29T12:50:06;25.80;65.40
76613;DHT22;65507;48.454;-2.058;2023-07-29T12:52:31;25.70;65.60
76613;DHT22;65507;48.454;-2.058;2023-07-29T12:54:57;25.40;65.90
76613;DHT22;65507;48.454;-2.058;2023-07-29T12:57:22;25.20;66.20
76613;DHT22;65507;48.454;-2.058;2023-07-29T12:59:48;25.20;66.60
76613;DHT22;65507;48.454;-2.058;2023-07-29T13:02:13;25.20;66.50
76613;DHT22;65507;48.454;-2.058;2023-07-29T13:04:39;25.00;66.50
76613;DHT22;65507;48.454;-2.058;2023-07-29T13:07:04;25.00;66.70
76613;DHT22;65507;48.454;-2.058;2023-07-29T13:09:30;24.80;66.70
76613;DHT22;65507;48.454;-2.058;2023-07-29T13:11:56;24.50;66.90
76613;DHT22;65507;48.454;-2.058;2023-07-29T13:14:21;24.00;67.70
76613;DHT22;65507;48.454;-2.058;2023-07-29T13:16:47;23.50;68.90
76613;DHT22;65507;48.454;-2.058;2023-07-29T13:19:12;22.90;70.30
76613;DHT22;65507;48.454;-2.058;2023-07-29T13:21:38;22.50;70.80
76613;DHT22;65507;48.454;-2.058;2023-07-29T13:24:03;22.10;71.20
76613;DHT22;65507;48.454;-2.058;2023-07-29T13:26:29;21.80;71.60
76613;DHT22;65507;48.454;-2.058;2023-07-29T13:28:54;21.50;72.10
76613;DHT22;65507;48.454;-2.058;2023-07-29T13:31:21;21.20;72.20
76613;DHT22;65507;48.454;-2.058;2023-07-29T13:33:46;21.10;72.30
76613;DHT22;65507;48.454;-2.058;2023-07-29T13:36:14;20.90;72.20
76613;DHT22;65507;48.454;-2.058;2023-07-29T13:38:39;20.80;72.30
76613;DHT22;65507;48.454;-2.058;2023-07-29T13:41:05;20.70;72.00
76613;DHT22;65507;48.454;-2.058;2023-07-29T13:43:30;20.80;71.80
76613;DHT22;65507;48.454;-2.058;2023-07-29T13:45:56;20.70;71.60
76613;DHT22;65507;48.454;-2.058;2023-07-29T13:48:22;20.70;71.40
76613;DHT22;65507;48.454;-2.058;2023-07-29T13:50:47;20.70;71.40
76613;DHT22;65507;48.454;-2.058;2023-07-29T13:53:13;20.80;71.20
76613;DHT22;65507;48.454;-2.058;2023-07-29T13:55:38;20.80;70.90
76613;DHT22;65507;48.454;-2.058;2023-07-29T13:58:04;20.80;70.60
76613;DHT22;65507;48.454;-2.058;2023-07-29T14:00:29;20.90;70.70
76613;DHT22;65507;48.454;-2.058;2023-07-29T14:02:55;20.90;70.70
76613;DHT22;65507;48.454;-2.058;2023-07-29T14:05:20;20.90;70.40
76613;DHT22;65507;48.454;-2.058;2023-07-29T14:07:46;21.00;70.20
76613;DHT22;65507;48.454;-2.058;2023-07-29T14:10:12;21.10;70.00
76613;DHT22;65507;48.454;-2.058;2023-07-29T14:12:37;21.10;69.90
76613;DHT22;65507;48.454;-2.058;2023-07-29T14:15:03;21.00;70.10
76613;DHT22;65507;48.454;-2.058;2023-07-29T14:17:29;20.90;70.40
76613;DHT22;65507;48.454;-2.058;2023-07-29T14:19:54;20.70;70.80
76613;DHT22;65507;48.454;-2.058;2023-07-29T14:22:20;20.50;71.20
76613;DHT22;65507;48.454;-2.058;2023-07-29T14:24:46;20.40;71.50
76613;DHT22;65507;48.454;-2.058;2023-07-29T14:27:11;20.20;71.90
76613;DHT22;65507;48.454;-2.058;2023-07-29T14:29:37;20.10;72.00
76613;DHT22;65507;48.454;-2.058;2023-07-29T14:32:02;19.90;72.20
76613;DHT22;65507;48.454;-2.058;2023-07-29T14:34:28;19.80;72.20
76613;DHT22;65507;48.454;-2.058;2023-07-29T14:36:54;19.80;72.20
76613;DHT22;65507;48.454;-2.058;2023-07-29T14:39:20;19.80;72.10
76613;DHT22;65507;48.454;-2.058;2023-07-29T14:41:45;19.80;72.10
76613;DHT22;65507;48.454;-2.058;2023-07-29T14:44:11;19.80;72.10
76613;DHT22;65507;48.454;-2.058;2023-07-29T14:46:36;19.80;72.10
76613;DHT22;65507;48.454;-2.058;2023-07-29T14:49:02;19.70;72.10
76613;DHT22;65507;48.454;-2.058;2023-07-29T14:51:27;19.60;72.40
76613;DHT22;65507;48.454;-2.058;2023-07-29T14:53:53;19.50;72.80
76613;DHT22;65507;48.454;-2.058;2023-07-29T14:56:18;19.40;72.80
76613;DHT22;65507;48.454;-2.058;2023-07-29T14:58:44;19.30;73.00
76613;DHT22;65507;48.454;-2.058;2023-07-29T15:01:10;19.20;73.10
76613;DHT22;65507;48.454;-2.058;2023-07-29T15:03:35;19.20;73.10
76613;DHT22;65507;48.454;-2.058;2023-07-29T15:06:01;19.00;73.20
76613;DHT22;65507;48.454;-2.058;2023-07-29T15:08:28;19.00;73.30
76613;DHT22;65507;48.454;-2.058;2023-07-29T15:10:53;19.00;73.20
76613;DHT22;65507;48.454;-2.058;2023-07-29T15:13:20;19.00;73.20
76613;DHT22;65507;48.454;-2.058;2023-07-29T15:15:45;18.90;73.20
76613;DHT22;65507;48.454;-2.058;2023-07-29T15:18:11;18.90;73.40
76613;DHT22;65507;48.454;-2.058;2023-07-29T15:20:36;18.70;73.80
76613;DHT22;65507;48.454;-2.058;2023-07-29T15:23:02;18.50;74.00
76613;DHT22;65507;48.454;-2.058;2023-07-29T15:25:27;18.40;74.50
76613;DHT22;65507;48.454;-2.058;2023-07-29T15:27:53;18.30;74.60
76613;DHT22;65507;48.454;-2.058;2023-07-29T15:30:19;18.20;74.40
76613;DHT22;65507;48.454;-2.058;2023-07-29T15:32:44;18.20;74.30
76613;DHT22;65507;48.454;-2.058;2023-07-29T15:35:10;18.30;74.10